Terminal Aerodrome Forecast
Issued by NWS

Home | Current Version | Previous Version | Text Only | Print | Product List | Glossary On
Versions: 1 2 3 4 5 6 7 8 9 10 11 12 13 14 15
000
FTUS41 KPBZ 050523
TAFBVI
TAF
KBVI 050523Z 0506/0606 15003KT P6SM BKN080
     FM051200 24007KT 4SM -SHRA BR OVC035
     FM052100 25004KT P6SM VCTS BKN035CB
     FM060300 33003KT P6SM BKN080
      AMD NOT SKED TIL 051200=

USA.gov is the U.S. government's official web portal to all federal, state and local government web resources and services.